GEC8265 GCLP-EDDF
Flight info
| Callsign | GEC8265 |
|---|---|
| Flight time | 3h 36m |
| Altitude | 34000 |
| Route | VASTO UN858 DIMSA/N0485F360 UN858 AKUDA DCT PESAS DCT OSLEP DCT OXACA DCT HIJ DCT CRISA DCT INPAN DCT VTB DCT PALIO DCT SEGRE DCT YAKXU DCT RONNY DCT TOPTU DCT TOU DCT GAI DCT MEN DCT NINUN UN871 OMASI DCT KINNI DCT SOSAL DCT KORED DCT BERSU DCT DITON/N0478F370 DCT LADOL/N0480F360 T163 EMPAX |
| Aircraft | MD11/H-SDE1E2E3FGHIJ2J3J4J5M1RWXY/LB1D1 |
Departure
| Time | 2026-05-03 20:15 |
|---|---|
| Airport | Gran Canaria Airport (GCLP) |
Arrival
| Time | 2026-05-03 23:51 |
|---|---|
| Airport | Frankfurt Main Airport (EDDF) |
| Time | Latitude | Longitude | Altitude | Speed | Heading |
|---|---|---|---|---|---|
| 2026-05-03 20:15 | 28.05797 | -15.33501 | 5438 ft | 267 kts | 16° |
| 2026-05-03 20:15 | 28.07599 | -15.32875 | 6093 ft | 273 kts | 15° |
| 2026-05-03 20:15 | 28.09419 | -15.32177 | 6888 ft | 279 kts | 22° |
| 2026-05-03 20:15 | 28.11144 | -15.31151 | 7712 ft | 285 kts | 27° |
| 2026-05-03 20:16 | 28.12877 | -15.30000 | 8542 ft | 291 kts | 28° |
| 2026-05-03 20:16 | 28.14644 | -15.28825 | 9356 ft | 296 kts | 28° |
| 2026-05-03 20:16 | 28.16422 | -15.27661 | 10130 ft | 301 kts | 27° |
| 2026-05-03 20:16 | 28.18317 | -15.26444 | 10365 ft | 327 kts | 27° |
| 2026-05-03 20:17 | 28.20391 | -15.25131 | 10488 ft | 356 kts | 27° |
| 2026-05-03 20:17 | 28.22614 | -15.23732 | 10957 ft | 370 kts | 27° |
| 2026-05-03 20:17 | 28.24889 | -15.22302 | 11716 ft | 376 kts | 26° |
| 2026-05-03 20:17 | 28.27209 | -15.20847 | 12479 ft | 381 kts | 26° |
| 2026-05-03 20:18 | 28.29515 | -15.19404 | 13206 ft | 386 kts | 26° |
| 2026-05-03 20:18 | 28.31888 | -15.17921 | 13925 ft | 391 kts | 26° |
| 2026-05-03 20:18 | 28.34286 | -15.16422 | 14552 ft | 396 kts | 26° |
| 2026-05-03 20:18 | 28.36721 | -15.14901 | 15171 ft | 401 kts | 26° |
| 2026-05-03 20:19 | 28.39177 | -15.13365 | 15785 ft | 405 kts | 26° |
| 2026-05-03 20:19 | 28.41639 | -15.11825 | 16362 ft | 410 kts | 26° |
| 2026-05-03 20:19 | 28.44150 | -15.10254 | 16940 ft | 414 kts | 26° |
| 2026-05-03 20:19 | 28.46689 | -15.08664 | 17511 ft | 419 kts | 26° |
| 2026-05-03 20:20 | 28.49261 | -15.07053 | 18075 ft | 423 kts | 26° |
| 2026-05-03 20:20 | 28.51856 | -15.05427 | 18590 ft | 428 kts | 26° |
| 2026-05-03 20:20 | 28.54478 | -15.03782 | 19062 ft | 432 kts | 26° |
| 2026-05-03 20:20 | 28.57117 | -15.02126 | 19544 ft | 435 kts | 26° |
| 2026-05-03 20:21 | 28.59753 | -15.00470 | 20008 ft | 438 kts | 26° |
| 2026-05-03 20:21 | 28.62439 | -14.98783 | 20468 ft | 442 kts | 26° |
| 2026-05-03 20:21 | 28.65144 | -14.97082 | 20932 ft | 445 kts | 26° |
| 2026-05-03 20:21 | 28.67865 | -14.95370 | 21392 ft | 448 kts | 26° |
| 2026-05-03 20:22 | 28.70607 | -14.93645 | 21861 ft | 452 kts | 26° |
| 2026-05-03 20:22 | 28.73378 | -14.91900 | 22320 ft | 456 kts | 26° |
| 2026-05-03 20:22 | 28.76164 | -14.90144 | 22813 ft | 459 kts | 26° |
| 2026-05-03 20:22 | 28.78971 | -14.88374 | 23297 ft | 463 kts | 26° |
| 2026-05-03 20:23 | 28.81771 | -14.86605 | 23758 ft | 467 kts | 26° |
| 2026-05-03 20:23 | 28.84626 | -14.84795 | 24189 ft | 470 kts | 26° |
| 2026-05-03 20:23 | 28.87506 | -14.82969 | 24626 ft | 473 kts | 26° |
| 2026-05-03 20:23 | 28.90400 | -14.81132 | 25081 ft | 476 kts | 26° |
| 2026-05-03 20:24 | 28.93258 | -14.79186 | 25519 ft | 481 kts | 29° |
| 2026-05-03 20:24 | 28.96079 | -14.77110 | 25973 ft | 484 kts | 30° |
| 2026-05-03 20:24 | 28.98860 | -14.74988 | 26416 ft | 488 kts | 31° |
| 2026-05-03 20:24 | 29.01692 | -14.72801 | 26846 ft | 491 kts | 31° |
| 2026-05-03 20:25 | 29.04531 | -14.70608 | 27283 ft | 494 kts | 31° |
| 2026-05-03 20:25 | 29.07365 | -14.68427 | 27712 ft | 497 kts | 30° |
| 2026-05-03 20:25 | 29.10252 | -14.66215 | 28145 ft | 500 kts | 30° |
| 2026-05-03 20:25 | 29.13159 | -14.63992 | 28564 ft | 503 kts | 30° |
| 2026-05-03 20:26 | 29.16078 | -14.61763 | 28992 ft | 506 kts | 30° |
| 2026-05-03 20:26 | 29.19021 | -14.59516 | 29402 ft | 509 kts | 30° |
| 2026-05-03 20:26 | 29.21974 | -14.57259 | 29801 ft | 512 kts | 30° |
| 2026-05-03 20:26 | 29.24919 | -14.55007 | 30174 ft | 515 kts | 30° |
| 2026-05-03 20:27 | 29.27918 | -14.52711 | 30466 ft | 518 kts | 30° |
| 2026-05-03 20:27 | 29.30920 | -14.50411 | 30766 ft | 520 kts | 30° |
| 2026-05-03 20:27 | 29.33915 | -14.48114 | 31047 ft | 522 kts | 30° |
| 2026-05-03 20:27 | 29.36938 | -14.45794 | 31387 ft | 523 kts | 30° |
| 2026-05-03 20:28 | 29.39973 | -14.43461 | 31737 ft | 523 kts | 30° |
| 2026-05-03 20:28 | 29.43001 | -14.41133 | 32093 ft | 523 kts | 30° |
| 2026-05-03 20:28 | 29.45988 | -14.38836 | 32429 ft | 523 kts | 30° |
| 2026-05-03 20:28 | 29.49014 | -14.36506 | 32768 ft | 522 kts | 30° |
| 2026-05-03 20:29 | 29.52031 | -14.34182 | 33099 ft | 522 kts | 30° |
| 2026-05-03 20:29 | 29.55046 | -14.31859 | 33417 ft | 522 kts | 30° |
| 2026-05-03 20:29 | 29.58061 | -14.29533 | 33727 ft | 522 kts | 30° |
| 2026-05-03 20:29 | 29.61081 | -14.27201 | 34012 ft | 522 kts | 30° |
| 2026-05-03 20:30 | 29.64096 | -14.24864 | 34087 ft | 523 kts | 30° |
| 2026-05-03 20:30 | 29.70121 | -14.20190 | 34120 ft | 524 kts | 30° |
| 2026-05-03 20:31 | 29.76169 | -14.15502 | 34121 ft | 524 kts | 30° |
| 2026-05-03 20:31 | 29.82234 | -14.10813 | 34124 ft | 524 kts | 30° |
| 2026-05-03 20:32 | 29.88285 | -14.06138 | 34125 ft | 524 kts | 30° |
| 2026-05-03 20:32 | 29.94306 | -14.01480 | 34112 ft | 523 kts | 30° |
| 2026-05-03 20:33 | 30.00367 | -13.96783 | 34117 ft | 523 kts | 30° |
| 2026-05-03 20:33 | 30.06374 | -13.92119 | 34115 ft | 523 kts | 30° |
| 2026-05-03 20:34 | 30.12405 | -13.87431 | 34121 ft | 522 kts | 30° |
| 2026-05-03 20:34 | 30.18444 | -13.82730 | 34118 ft | 522 kts | 30° |
| 2026-05-03 20:35 | 30.24472 | -13.78029 | 34120 ft | 522 kts | 30° |
| 2026-05-03 20:35 | 30.30472 | -13.73344 | 34121 ft | 522 kts | 30° |
| 2026-05-03 20:36 | 30.36498 | -13.68631 | 34122 ft | 521 kts | 30° |
| 2026-05-03 20:36 | 30.42470 | -13.63953 | 34120 ft | 521 kts | 30° |
| 2026-05-03 20:37 | 30.48477 | -13.59228 | 34116 ft | 521 kts | 30° |
| 2026-05-03 20:37 | 30.54463 | -13.54486 | 34113 ft | 520 kts | 30° |
| 2026-05-03 20:38 | 30.60404 | -13.49756 | 34120 ft | 520 kts | 30° |
| 2026-05-03 20:38 | 30.66384 | -13.44990 | 34119 ft | 520 kts | 30° |
| 2026-05-03 20:39 | 30.72355 | -13.40229 | 34122 ft | 520 kts | 30° |
| 2026-05-03 20:39 | 30.78290 | -13.35488 | 34122 ft | 520 kts | 30° |
| 2026-05-03 20:40 | 30.84266 | -13.30708 | 34121 ft | 520 kts | 30° |
| 2026-05-03 20:40 | 30.90201 | -13.25954 | 34119 ft | 520 kts | 30° |
| 2026-05-03 20:41 | 30.96165 | -13.21192 | 34117 ft | 520 kts | 30° |
| 2026-05-03 20:41 | 31.02149 | -13.16434 | 34119 ft | 520 kts | 30° |
| 2026-05-03 20:42 | 31.08104 | -13.11700 | 34124 ft | 520 kts | 30° |
| 2026-05-03 20:42 | 31.14086 | -13.06935 | 34123 ft | 520 kts | 30° |
| 2026-05-03 20:43 | 31.20073 | -13.02158 | 34123 ft | 520 kts | 30° |
| 2026-05-03 20:43 | 31.26052 | -12.97379 | 34126 ft | 520 kts | 30° |
| 2026-05-03 20:44 | 31.31996 | -12.92622 | 34122 ft | 521 kts | 30° |
| 2026-05-03 20:44 | 31.37979 | -12.87825 | 34122 ft | 521 kts | 30° |
| 2026-05-03 20:45 | 31.43957 | -12.83024 | 34123 ft | 521 kts | 30° |
| 2026-05-03 20:45 | 31.49936 | -12.78216 | 34120 ft | 521 kts | 30° |
| 2026-05-03 20:46 | 31.55922 | -12.73394 | 34128 ft | 522 kts | 30° |
| 2026-05-03 20:46 | 31.61875 | -12.68584 | 34125 ft | 522 kts | 30° |
| 2026-05-03 20:47 | 31.67857 | -12.63730 | 34122 ft | 522 kts | 30° |
| 2026-05-03 20:47 | 31.73846 | -12.58874 | 34121 ft | 523 kts | 30° |
| 2026-05-03 20:48 | 31.79833 | -12.54021 | 34125 ft | 523 kts | 30° |
| 2026-05-03 20:48 | 31.85798 | -12.49178 | 34127 ft | 523 kts | 30° |
| 2026-05-03 20:49 | 31.91805 | -12.44293 | 34126 ft | 523 kts | 30° |
| 2026-05-03 20:49 | 31.97800 | -12.39409 | 34128 ft | 523 kts | 30° |
| 2026-05-03 20:50 | 32.03758 | -12.34552 | 34125 ft | 523 kts | 30° |
| 2026-05-03 20:50 | 32.09764 | -12.29661 | 34127 ft | 523 kts | 30° |
| 2026-05-03 20:51 | 32.15769 | -12.24766 | 34127 ft | 523 kts | 30° |
| 2026-05-03 20:51 | 32.21732 | -12.19897 | 34129 ft | 524 kts | 30° |
| 2026-05-03 20:52 | 32.27728 | -12.14992 | 34129 ft | 523 kts | 30° |
| 2026-05-03 20:52 | 32.33698 | -12.10101 | 34118 ft | 524 kts | 30° |
| 2026-05-03 20:53 | 32.39685 | -12.05189 | 34127 ft | 524 kts | 30° |
| 2026-05-03 20:53 | 32.45684 | -12.00257 | 34128 ft | 524 kts | 30° |
| 2026-05-03 20:54 | 32.51653 | -11.95343 | 34128 ft | 524 kts | 30° |
| 2026-05-03 20:54 | 32.60696 | -11.87885 | 34131 ft | 529 kts | 30° |
| 2026-05-03 20:55 | 32.66713 | -11.82902 | 34131 ft | 530 kts | 30° |
| 2026-05-03 20:55 | 32.72758 | -11.77873 | 34130 ft | 531 kts | 30° |
| 2026-05-03 20:56 | 32.78819 | -11.72836 | 34130 ft | 531 kts | 30° |
| 2026-05-03 20:56 | 32.84906 | -11.67778 | 34129 ft | 532 kts | 30° |
| 2026-05-03 20:57 | 32.90950 | -11.62747 | 34130 ft | 532 kts | 30° |
| 2026-05-03 20:57 | 32.97026 | -11.57681 | 34131 ft | 533 kts | 30° |
| 2026-05-03 20:58 | 33.03071 | -11.52632 | 34130 ft | 533 kts | 30° |
| 2026-05-03 20:58 | 33.09152 | -11.47544 | 34128 ft | 533 kts | 30° |
| 2026-05-03 20:59 | 33.15235 | -11.42446 | 34128 ft | 534 kts | 30° |
| 2026-05-03 20:59 | 33.21278 | -11.37341 | 34136 ft | 535 kts | 30° |
| 2026-05-03 21:00 | 33.25331 | -11.33898 | 34137 ft | 535 kts | 30° |
| 2026-05-03 21:00 | 33.32393 | -11.27897 | 34124 ft | 535 kts | 30° |
| 2026-05-03 21:01 | 33.39460 | -11.21890 | 34129 ft | 535 kts | 30° |
| 2026-05-03 21:01 | 33.44523 | -11.17579 | 34128 ft | 536 kts | 30° |
| 2026-05-03 21:02 | 33.50610 | -11.12390 | 34125 ft | 537 kts | 30° |
| 2026-05-03 21:02 | 33.56707 | -11.07180 | 34143 ft | 537 kts | 30° |
| 2026-05-03 21:03 | 33.62757 | -11.02002 | 34134 ft | 537 kts | 30° |
| 2026-05-03 21:03 | 33.68844 | -10.96784 | 34133 ft | 538 kts | 30° |
| 2026-05-03 21:04 | 33.74940 | -10.91548 | 34130 ft | 538 kts | 30° |
| 2026-05-03 21:04 | 33.81042 | -10.86298 | 34133 ft | 539 kts | 30° |
| 2026-05-03 21:05 | 33.87110 | -10.81058 | 34133 ft | 539 kts | 30° |
| 2026-05-03 21:05 | 33.93215 | -10.75763 | 34131 ft | 540 kts | 30° |
| 2026-05-03 21:06 | 33.99300 | -10.70491 | 34130 ft | 540 kts | 30° |
| 2026-05-03 21:06 | 34.05409 | -10.65197 | 34130 ft | 541 kts | 30° |
| 2026-05-03 21:07 | 34.11490 | -10.59919 | 34124 ft | 542 kts | 30° |
| 2026-05-03 21:07 | 34.17635 | -10.54574 | 34128 ft | 542 kts | 30° |
| 2026-05-03 21:08 | 34.23723 | -10.49269 | 34128 ft | 543 kts | 30° |
| 2026-05-03 21:08 | 34.29857 | -10.43915 | 34126 ft | 543 kts | 30° |
| 2026-05-03 21:09 | 34.35999 | -10.38542 | 34131 ft | 544 kts | 30° |
| 2026-05-03 21:09 | 34.42113 | -10.33185 | 34128 ft | 545 kts | 30° |
| 2026-05-03 21:10 | 34.48259 | -10.27790 | 34121 ft | 545 kts | 30° |
| 2026-05-03 21:10 | 34.54407 | -10.22375 | 34129 ft | 546 kts | 30° |
| 2026-05-03 21:11 | 34.60506 | -10.16976 | 34123 ft | 547 kts | 30° |
| 2026-05-03 21:11 | 34.66666 | -10.11532 | 34113 ft | 547 kts | 30° |
| 2026-05-03 21:12 | 34.72847 | -10.06075 | 34121 ft | 548 kts | 30° |
| 2026-05-03 21:12 | 34.78999 | -10.00637 | 34123 ft | 548 kts | 30° |
| 2026-05-03 21:13 | 34.85179 | -9.95162 | 34123 ft | 549 kts | 30° |
| 2026-05-03 21:13 | 34.91362 | -9.89674 | 34122 ft | 550 kts | 30° |
| 2026-05-03 21:14 | 34.97527 | -9.84191 | 34119 ft | 550 kts | 30° |
| 2026-05-03 21:14 | 35.03711 | -9.78681 | 34122 ft | 551 kts | 30° |
| 2026-05-03 21:15 | 35.09872 | -9.73180 | 34117 ft | 551 kts | 31° |
| 2026-05-03 21:15 | 35.16073 | -9.67634 | 34110 ft | 551 kts | 31° |
| 2026-05-03 21:16 | 35.22234 | -9.62112 | 34113 ft | 551 kts | 31° |
| 2026-05-03 21:16 | 35.28442 | -9.56537 | 34119 ft | 552 kts | 31° |
| 2026-05-03 21:17 | 35.33600 | -9.51876 | 34116 ft | 552 kts | 31° |
| 2026-05-03 21:17 | 35.40277 | -9.45838 | 34110 ft | 553 kts | 31° |
| 2026-05-03 21:18 | 35.46442 | -9.40267 | 34114 ft | 553 kts | 31° |
| 2026-05-03 21:18 | 35.52599 | -9.34697 | 34113 ft | 553 kts | 31° |
| 2026-05-03 21:19 | 35.58812 | -9.29065 | 34111 ft | 553 kts | 31° |
| 2026-05-03 21:19 | 35.64980 | -9.23462 | 34108 ft | 554 kts | 31° |
| 2026-05-03 21:20 | 35.70978 | -9.18003 | 34111 ft | 553 kts | 31° |
| 2026-05-03 21:20 | 35.77170 | -9.12357 | 34111 ft | 553 kts | 31° |
| 2026-05-03 21:21 | 35.83328 | -9.06730 | 34106 ft | 553 kts | 31° |
| 2026-05-03 21:21 | 35.89518 | -9.01062 | 34099 ft | 553 kts | 31° |
| 2026-05-03 21:22 | 35.95707 | -8.95383 | 34095 ft | 553 kts | 32° |
| 2026-05-03 21:22 | 36.01503 | -8.89162 | 34101 ft | 559 kts | 43° |
| 2026-05-03 21:23 | 36.06606 | -8.81822 | 34099 ft | 562 kts | 48° |
| 2026-05-03 21:23 | 36.11523 | -8.74386 | 34098 ft | 561 kts | 47° |
| 2026-05-03 21:24 | 36.16558 | -8.66976 | 34094 ft | 561 kts | 46° |
| 2026-05-03 21:24 | 36.21604 | -8.59668 | 34094 ft | 560 kts | 46° |
| 2026-05-03 21:25 | 36.26685 | -8.52312 | 34088 ft | 561 kts | 46° |
| 2026-05-03 21:25 | 36.31751 | -8.44946 | 34090 ft | 561 kts | 46° |
| 2026-05-03 21:26 | 36.36813 | -8.37563 | 34090 ft | 561 kts | 46° |
| 2026-05-03 21:26 | 36.41833 | -8.30225 | 34078 ft | 560 kts | 46° |
| 2026-05-03 21:27 | 36.46874 | -8.22839 | 34084 ft | 560 kts | 46° |
| 2026-05-03 21:27 | 36.51911 | -8.15444 | 34085 ft | 559 kts | 47° |
| 2026-05-03 21:28 | 36.56903 | -8.08062 | 34077 ft | 559 kts | 47° |
| 2026-05-03 21:28 | 36.61915 | -8.00636 | 34079 ft | 560 kts | 47° |
| 2026-05-03 21:29 | 36.66850 | -7.93335 | 34075 ft | 560 kts | 47° |
| 2026-05-03 21:29 | 36.71849 | -7.85934 | 34067 ft | 561 kts | 47° |
| 2026-05-03 21:30 | 36.76867 | -7.78487 | 34063 ft | 561 kts | 47° |
| 2026-05-03 21:30 | 36.81892 | -7.71011 | 34064 ft | 561 kts | 47° |
| 2026-05-03 21:31 | 36.85929 | -7.64993 | 34062 ft | 561 kts | 47° |
| 2026-05-03 21:31 | 36.90931 | -7.57521 | 34063 ft | 561 kts | 47° |
| 2026-05-03 21:32 | 36.95922 | -7.50047 | 34060 ft | 561 kts | 47° |
| 2026-05-03 21:32 | 37.00907 | -7.42567 | 34060 ft | 561 kts | 47° |
| 2026-05-03 21:33 | 37.05906 | -7.35059 | 34056 ft | 561 kts | 47° |
| 2026-05-03 21:33 | 37.10929 | -7.27559 | 34054 ft | 561 kts | 47° |
| 2026-05-03 21:34 | 37.15966 | -7.20063 | 34052 ft | 561 kts | 47° |
| 2026-05-03 21:34 | 37.20995 | -7.12558 | 34053 ft | 562 kts | 47° |
| 2026-05-03 21:35 | 37.26003 | -7.05067 | 34047 ft | 562 kts | 47° |
| 2026-05-03 21:35 | 37.31032 | -6.97529 | 34043 ft | 562 kts | 47° |
| 2026-05-03 21:36 | 37.36030 | -6.90024 | 34043 ft | 562 kts | 47° |
| 2026-05-03 21:36 | 37.41050 | -6.82468 | 34040 ft | 563 kts | 47° |
| 2026-05-03 21:37 | 37.46076 | -6.74885 | 34035 ft | 563 kts | 47° |
| 2026-05-03 21:37 | 37.51057 | -6.67352 | 34032 ft | 562 kts | 47° |
| 2026-05-03 21:38 | 37.56067 | -6.59757 | 34032 ft | 562 kts | 47° |
| 2026-05-03 21:38 | 37.61036 | -6.52209 | 34027 ft | 562 kts | 47° |
| 2026-05-03 21:39 | 37.66031 | -6.44603 | 34027 ft | 561 kts | 47° |
| 2026-05-03 21:39 | 37.71015 | -6.36979 | 34030 ft | 562 kts | 48° |
| 2026-05-03 21:40 | 37.75940 | -6.29396 | 34023 ft | 561 kts | 48° |
| 2026-05-03 21:40 | 37.80900 | -6.21770 | 34020 ft | 561 kts | 48° |
| 2026-05-03 21:41 | 37.85866 | -6.14139 | 34020 ft | 560 kts | 48° |
| 2026-05-03 21:41 | 37.90784 | -6.06564 | 34021 ft | 560 kts | 48° |
| 2026-05-03 21:42 | 37.95717 | -5.98911 | 34022 ft | 560 kts | 49° |
| 2026-05-03 21:42 | 38.00580 | -5.91151 | 34018 ft | 560 kts | 49° |
| 2026-05-03 21:43 | 38.05379 | -5.83425 | 34016 ft | 560 kts | 49° |
| 2026-05-03 21:43 | 38.10215 | -5.75643 | 34018 ft | 559 kts | 49° |
| 2026-05-03 21:44 | 38.15010 | -5.67926 | 34013 ft | 559 kts | 50° |
| 2026-05-03 21:44 | 38.19824 | -5.60159 | 34018 ft | 558 kts | 50° |
| 2026-05-03 21:45 | 38.24633 | -5.52383 | 34018 ft | 557 kts | 50° |
| 2026-05-03 21:45 | 38.29388 | -5.44673 | 34005 ft | 557 kts | 50° |
| 2026-05-03 21:46 | 38.34177 | -5.36892 | 34002 ft | 557 kts | 50° |
| 2026-05-03 21:46 | 38.38957 | -5.29104 | 34001 ft | 557 kts | 50° |
| 2026-05-03 21:47 | 38.42920 | -5.22635 | 34000 ft | 557 kts | 50° |
| 2026-05-03 21:47 | 38.48455 | -5.13577 | 33997 ft | 556 kts | 49° |
| 2026-05-03 21:48 | 38.53669 | -5.06321 | 34001 ft | 552 kts | 41° |
| 2026-05-03 21:48 | 38.58256 | -5.00647 | 33999 ft | 551 kts | 40° |
| 2026-05-03 21:49 | 38.64686 | -4.92733 | 33991 ft | 551 kts | 41° |
| 2026-05-03 21:49 | 38.69236 | -4.87023 | 33992 ft | 550 kts | 42° |
| 2026-05-03 21:50 | 38.74689 | -4.80116 | 33989 ft | 550 kts | 41° |
| 2026-05-03 21:50 | 38.80131 | -4.73201 | 33990 ft | 550 kts | 42° |
| 2026-05-03 21:51 | 38.85545 | -4.66315 | 33991 ft | 550 kts | 42° |
| 2026-05-03 21:51 | 38.90976 | -4.59394 | 33995 ft | 550 kts | 42° |
| 2026-05-03 21:52 | 38.96406 | -4.52447 | 33993 ft | 550 kts | 42° |
| 2026-05-03 21:52 | 39.01804 | -4.45533 | 33993 ft | 551 kts | 42° |
| 2026-05-03 21:53 | 39.07238 | -4.38580 | 33991 ft | 551 kts | 42° |
| 2026-05-03 21:53 | 39.12683 | -4.31604 | 33993 ft | 551 kts | 42° |
| 2026-05-03 21:54 | 39.18130 | -4.24609 | 33994 ft | 552 kts | 42° |
| 2026-05-03 21:54 | 39.23533 | -4.17653 | 33992 ft | 552 kts | 42° |
| 2026-05-03 21:55 | 39.28958 | -4.10651 | 33998 ft | 551 kts | 42° |
| 2026-05-03 21:55 | 39.34059 | -4.04054 | 33975 ft | 552 kts | 42° |
| 2026-05-03 21:56 | 39.39452 | -3.97063 | 33979 ft | 552 kts | 42° |
| 2026-05-03 21:56 | 39.44876 | -3.90016 | 33980 ft | 552 kts | 43° |
| 2026-05-03 21:57 | 39.50291 | -3.82962 | 33979 ft | 551 kts | 43° |
| 2026-05-03 21:57 | 39.55656 | -3.75929 | 33982 ft | 551 kts | 43° |
| 2026-05-03 21:58 | 39.61039 | -3.68829 | 33979 ft | 551 kts | 43° |
| 2026-05-03 21:58 | 39.66130 | -3.62117 | 33986 ft | 551 kts | 43° |
| 2026-05-03 21:59 | 39.71513 | -3.55015 | 33984 ft | 551 kts | 43° |
| 2026-05-03 21:59 | 39.76888 | -3.47990 | 33985 ft | 549 kts | 39° |
| 2026-05-03 22:00 | 39.82942 | -3.41989 | 33984 ft | 544 kts | 29° |
| 2026-05-03 22:00 | 39.89294 | -3.36722 | 33986 ft | 544 kts | 28° |
| 2026-05-03 22:01 | 39.95684 | -3.31401 | 33984 ft | 544 kts | 29° |
| 2026-05-03 22:01 | 40.01988 | -3.25990 | 34147 ft | 544 kts | 30° |
| 2026-05-03 22:02 | 40.05146 | -3.23249 | 34422 ft | 543 kts | 30° |
| 2026-05-03 22:02 | 40.08249 | -3.20550 | 34690 ft | 542 kts | 30° |
| 2026-05-03 22:02 | 40.11388 | -3.17817 | 34958 ft | 541 kts | 30° |
| 2026-05-03 22:02 | 40.14530 | -3.15081 | 35241 ft | 540 kts | 30° |
| 2026-05-03 22:03 | 40.17649 | -3.12364 | 35503 ft | 538 kts | 30° |
| 2026-05-03 22:03 | 40.20767 | -3.09647 | 35763 ft | 537 kts | 30° |
| 2026-05-03 22:03 | 40.23876 | -3.06935 | 35938 ft | 536 kts | 30° |
| 2026-05-03 22:03 | 40.26977 | -3.04223 | 35976 ft | 536 kts | 30° |
| 2026-05-03 22:04 | 40.33138 | -2.98811 | 35988 ft | 535 kts | 30° |
| 2026-05-03 22:04 | 40.39323 | -2.93377 | 35990 ft | 534 kts | 30° |
| 2026-05-03 22:05 | 40.45507 | -2.87941 | 35985 ft | 534 kts | 30° |
| 2026-05-03 22:05 | 40.51672 | -2.82510 | 35986 ft | 533 kts | 30° |
| 2026-05-03 22:06 | 40.57801 | -2.77099 | 35991 ft | 533 kts | 30° |
| 2026-05-03 22:06 | 40.63954 | -2.71654 | 35991 ft | 533 kts | 31° |
| 2026-05-03 22:07 | 40.70128 | -2.66178 | 35995 ft | 533 kts | 31° |
| 2026-05-03 22:07 | 40.76252 | -2.60733 | 35997 ft | 533 kts | 31° |
| 2026-05-03 22:08 | 40.82405 | -2.55251 | 35997 ft | 533 kts | 31° |
| 2026-05-03 22:08 | 40.88517 | -2.49793 | 35996 ft | 533 kts | 31° |
| 2026-05-03 22:09 | 40.94663 | -2.44289 | 35994 ft | 533 kts | 31° |
| 2026-05-03 22:10 | 41.03863 | -2.35988 | 35997 ft | 533 kts | 31° |
| 2026-05-03 22:10 | 41.09040 | -2.31024 | 35996 ft | 534 kts | 35° |
| 2026-05-03 22:11 | 41.14856 | -2.24844 | 35993 ft | 535 kts | 37° |
| 2026-05-03 22:11 | 41.20626 | -2.18587 | 35992 ft | 534 kts | 37° |
| 2026-05-03 22:12 | 41.26367 | -2.12406 | 35991 ft | 534 kts | 36° |
| 2026-05-03 22:12 | 41.32148 | -2.06204 | 35991 ft | 533 kts | 36° |
| 2026-05-03 22:13 | 41.37922 | -2.00002 | 35988 ft | 533 kts | 36° |
| 2026-05-03 22:13 | 41.43690 | -1.93789 | 35990 ft | 532 kts | 36° |
| 2026-05-03 22:14 | 41.49453 | -1.87564 | 35989 ft | 532 kts | 37° |
| 2026-05-03 22:14 | 41.55159 | -1.81386 | 35989 ft | 532 kts | 37° |
| 2026-05-03 22:15 | 41.60912 | -1.75143 | 35984 ft | 532 kts | 37° |
| 2026-05-03 22:15 | 41.66657 | -1.68894 | 35981 ft | 532 kts | 37° |
| 2026-05-03 22:16 | 41.72390 | -1.62631 | 35982 ft | 531 kts | 37° |
| 2026-05-03 22:16 | 41.78079 | -1.56373 | 35978 ft | 531 kts | 37° |
| 2026-05-03 22:17 | 41.83805 | -1.50083 | 35978 ft | 531 kts | 37° |
| 2026-05-03 22:17 | 41.89499 | -1.43829 | 35978 ft | 531 kts | 37° |
| 2026-05-03 22:18 | 41.95212 | -1.37542 | 35978 ft | 530 kts | 37° |
| 2026-05-03 22:18 | 42.00913 | -1.31253 | 35982 ft | 530 kts | 37° |
| 2026-05-03 22:19 | 42.06616 | -1.24944 | 35987 ft | 530 kts | 37° |
| 2026-05-03 22:19 | 42.12310 | -1.18618 | 35991 ft | 530 kts | 37° |
| 2026-05-03 22:20 | 42.17964 | -1.12313 | 35998 ft | 530 kts | 37° |
| 2026-05-03 22:20 | 42.23665 | -1.05957 | 35997 ft | 530 kts | 38° |
| 2026-05-03 22:21 | 42.29325 | -0.99638 | 35999 ft | 531 kts | 38° |
| 2026-05-03 22:21 | 42.35002 | -0.93286 | 36002 ft | 531 kts | 38° |
| 2026-05-03 22:22 | 42.40692 | -0.86903 | 36007 ft | 531 kts | 38° |
| 2026-05-03 22:22 | 42.45965 | -0.79875 | 36009 ft | 533 kts | 50° |
| 2026-05-03 22:23 | 42.50449 | -0.71930 | 36012 ft | 533 kts | 53° |
| 2026-05-03 22:23 | 42.54831 | -0.63841 | 36008 ft | 532 kts | 53° |
| 2026-05-03 22:24 | 42.59288 | -0.55818 | 36007 ft | 531 kts | 52° |
| 2026-05-03 22:24 | 42.63768 | -0.47862 | 36007 ft | 530 kts | 52° |
| 2026-05-03 22:25 | 42.68230 | -0.39934 | 36005 ft | 529 kts | 52° |
| 2026-05-03 22:25 | 42.72690 | -0.31977 | 35999 ft | 528 kts | 52° |
| 2026-05-03 22:26 | 42.77130 | -0.24026 | 36000 ft | 527 kts | 52° |
| 2026-05-03 22:26 | 42.81636 | -0.16111 | 36001 ft | 527 kts | 51° |
| 2026-05-03 22:27 | 42.86251 | -0.08400 | 35997 ft | 526 kts | 50° |
| 2026-05-03 22:27 | 42.90914 | -0.00689 | 35983 ft | 526 kts | 50° |
| 2026-05-03 22:28 | 42.95565 | 0.07044 | 35979 ft | 527 kts | 50° |
| 2026-05-03 22:28 | 43.00173 | 0.14748 | 35970 ft | 527 kts | 50° |
| 2026-05-03 22:29 | 43.04815 | 0.22534 | 35962 ft | 528 kts | 50° |
| 2026-05-03 22:29 | 43.09449 | 0.30325 | 35964 ft | 527 kts | 50° |
| 2026-05-03 22:30 | 43.14071 | 0.38117 | 35960 ft | 527 kts | 50° |
| 2026-05-03 22:30 | 43.18658 | 0.45871 | 35957 ft | 526 kts | 51° |
| 2026-05-03 22:31 | 43.23267 | 0.53682 | 35957 ft | 525 kts | 51° |
| 2026-05-03 22:31 | 43.27858 | 0.61483 | 35954 ft | 525 kts | 51° |
| 2026-05-03 22:32 | 43.32438 | 0.69300 | 35961 ft | 524 kts | 51° |
| 2026-05-03 22:32 | 43.36969 | 0.77107 | 35958 ft | 524 kts | 51° |
| 2026-05-03 22:33 | 43.41507 | 0.84913 | 35956 ft | 524 kts | 51° |
| 2026-05-03 22:33 | 43.46066 | 0.92748 | 35961 ft | 523 kts | 51° |
| 2026-05-03 22:34 | 43.50625 | 1.00595 | 35962 ft | 523 kts | 51° |
| 2026-05-03 22:34 | 43.55167 | 1.08437 | 35960 ft | 523 kts | 51° |
| 2026-05-03 22:35 | 43.59680 | 1.16251 | 35964 ft | 522 kts | 51° |
| 2026-05-03 22:35 | 43.64204 | 1.24105 | 35963 ft | 522 kts | 51° |
| 2026-05-03 22:36 | 43.68698 | 1.32005 | 35966 ft | 522 kts | 53° |
| 2026-05-03 22:36 | 43.73003 | 1.40014 | 35959 ft | 521 kts | 54° |
| 2026-05-03 22:37 | 43.76569 | 1.46750 | 35965 ft | 520 kts | 54° |
| 2026-05-03 22:37 | 43.81560 | 1.56160 | 35965 ft | 520 kts | 54° |
| 2026-05-03 22:38 | 43.85125 | 1.62870 | 35968 ft | 519 kts | 54° |
| 2026-05-03 22:38 | 43.89412 | 1.70956 | 35972 ft | 519 kts | 54° |
| 2026-05-03 22:39 | 43.93683 | 1.79033 | 35970 ft | 519 kts | 54° |
| 2026-05-03 22:39 | 43.97844 | 1.87151 | 35977 ft | 518 kts | 56° |
| 2026-05-03 22:40 | 44.01935 | 1.95416 | 35978 ft | 518 kts | 56° |
| 2026-05-03 22:40 | 44.06015 | 2.03685 | 35981 ft | 518 kts | 56° |
| 2026-05-03 22:41 | 44.10073 | 2.11895 | 35996 ft | 517 kts | 56° |
| 2026-05-03 22:41 | 44.14154 | 2.20160 | 35984 ft | 517 kts | 56° |
| 2026-05-03 22:42 | 44.18200 | 2.28380 | 36007 ft | 517 kts | 56° |
| 2026-05-03 22:42 | 44.22265 | 2.36662 | 36010 ft | 517 kts | 56° |
| 2026-05-03 22:43 | 44.26328 | 2.44964 | 36019 ft | 517 kts | 56° |
| 2026-05-03 22:43 | 44.30353 | 2.53213 | 36019 ft | 517 kts | 56° |
| 2026-05-03 22:44 | 44.34401 | 2.61532 | 36021 ft | 517 kts | 56° |
| 2026-05-03 22:44 | 44.38413 | 2.69800 | 36018 ft | 516 kts | 56° |
| 2026-05-03 22:45 | 44.42434 | 2.78125 | 36024 ft | 516 kts | 57° |
| 2026-05-03 22:45 | 44.46435 | 2.86502 | 36027 ft | 516 kts | 57° |
| 2026-05-03 22:46 | 44.50409 | 2.94807 | 36033 ft | 516 kts | 57° |
| 2026-05-03 22:46 | 44.54432 | 3.03201 | 36042 ft | 516 kts | 57° |
| 2026-05-03 22:47 | 44.58403 | 3.11502 | 36044 ft | 515 kts | 57° |
| 2026-05-03 22:47 | 44.62376 | 3.19927 | 36051 ft | 515 kts | 59° |
| 2026-05-03 22:48 | 44.65964 | 3.28591 | 36051 ft | 514 kts | 62° |
| 2026-05-03 22:48 | 44.69410 | 3.37398 | 36055 ft | 514 kts | 62° |
| 2026-05-03 22:49 | 44.72847 | 3.46155 | 36051 ft | 514 kts | 62° |
| 2026-05-03 22:49 | 44.76477 | 3.54825 | 36050 ft | 514 kts | 57° |
| 2026-05-03 22:50 | 44.80492 | 3.63121 | 36055 ft | 514 kts | 55° |
| 2026-05-03 22:50 | 44.84592 | 3.71375 | 36056 ft | 513 kts | 55° |
| 2026-05-03 22:51 | 44.88637 | 3.79622 | 36055 ft | 512 kts | 56° |
| 2026-05-03 22:51 | 44.92663 | 3.87920 | 36046 ft | 512 kts | 56° |
| 2026-05-03 22:52 | 44.96711 | 3.96301 | 36063 ft | 520 kts | 57° |
| 2026-05-03 22:52 | 45.00795 | 4.04780 | 36051 ft | 522 kts | 57° |
| 2026-05-03 22:53 | 45.04859 | 4.13236 | 36045 ft | 522 kts | 57° |
| 2026-05-03 22:53 | 45.08936 | 4.21743 | 36047 ft | 522 kts | 57° |
| 2026-05-03 22:54 | 45.12988 | 4.30224 | 36049 ft | 522 kts | 57° |
| 2026-05-03 22:54 | 45.17053 | 4.38759 | 36048 ft | 522 kts | 57° |
| 2026-05-03 22:55 | 45.21117 | 4.47319 | 36050 ft | 522 kts | 57° |
| 2026-05-03 22:55 | 45.25114 | 4.55842 | 36047 ft | 521 kts | 57° |
| 2026-05-03 22:56 | 45.29137 | 4.64424 | 36047 ft | 522 kts | 57° |
| 2026-05-03 22:56 | 45.33172 | 4.73008 | 36041 ft | 522 kts | 57° |
| 2026-05-03 22:57 | 45.37210 | 4.81612 | 36044 ft | 522 kts | 57° |
| 2026-05-03 22:57 | 45.41235 | 4.90214 | 36045 ft | 522 kts | 57° |
| 2026-05-03 22:58 | 45.45255 | 4.98833 | 36055 ft | 522 kts | 57° |
| 2026-05-03 22:58 | 45.49250 | 5.07426 | 36060 ft | 522 kts | 57° |
| 2026-05-03 22:59 | 45.53261 | 5.16079 | 36047 ft | 523 kts | 57° |
| 2026-05-03 22:59 | 45.57263 | 5.24738 | 36049 ft | 522 kts | 57° |
| 2026-05-03 23:00 | 45.61254 | 5.33403 | 36050 ft | 521 kts | 57° |
| 2026-05-03 23:00 | 45.65225 | 5.42049 | 36053 ft | 520 kts | 57° |
| 2026-05-03 23:01 | 45.69153 | 5.50668 | 36064 ft | 519 kts | 57° |
| 2026-05-03 23:01 | 45.73073 | 5.59342 | 36071 ft | 518 kts | 57° |
| 2026-05-03 23:02 | 45.77004 | 5.68011 | 36070 ft | 518 kts | 57° |
| 2026-05-03 23:02 | 45.80907 | 5.76615 | 36070 ft | 517 kts | 57° |
| 2026-05-03 23:03 | 45.84825 | 5.85274 | 36074 ft | 516 kts | 57° |
| 2026-05-03 23:03 | 45.88714 | 5.93863 | 36072 ft | 515 kts | 55° |
| 2026-05-03 23:04 | 45.93459 | 6.01550 | 36074 ft | 514 kts | 42° |
| 2026-05-03 23:04 | 45.98845 | 6.08329 | 36076 ft | 514 kts | 39° |
| 2026-05-03 23:05 | 46.04206 | 6.15029 | 36075 ft | 514 kts | 40° |
| 2026-05-03 23:05 | 46.09504 | 6.21942 | 36074 ft | 514 kts | 43° |
| 2026-05-03 23:06 | 46.14639 | 6.29175 | 36074 ft | 514 kts | 44° |
| 2026-05-03 23:06 | 46.19665 | 6.36411 | 36068 ft | 513 kts | 44° |
| 2026-05-03 23:07 | 46.24727 | 6.43680 | 36068 ft | 512 kts | 44° |
| 2026-05-03 23:07 | 46.29771 | 6.50912 | 36068 ft | 511 kts | 44° |
| 2026-05-03 23:08 | 46.34831 | 6.58178 | 36068 ft | 510 kts | 44° |
| 2026-05-03 23:08 | 46.39831 | 6.65378 | 36065 ft | 509 kts | 44° |
| 2026-05-03 23:09 | 46.44853 | 6.72633 | 36066 ft | 508 kts | 44° |
| 2026-05-03 23:09 | 46.49827 | 6.79838 | 36070 ft | 507 kts | 44° |
| 2026-05-03 23:10 | 46.54832 | 6.87108 | 36074 ft | 507 kts | 44° |
| 2026-05-03 23:10 | 46.59562 | 6.94706 | 36074 ft | 507 kts | 50° |
| 2026-05-03 23:11 | 46.63941 | 7.02685 | 36075 ft | 506 kts | 51° |
| 2026-05-03 23:11 | 46.68309 | 7.10738 | 36074 ft | 505 kts | 51° |
| 2026-05-03 23:12 | 46.72674 | 7.18705 | 36073 ft | 505 kts | 51° |
| 2026-05-03 23:12 | 46.74878 | 7.22713 | 35936 ft | 505 kts | 51° |
| 2026-05-03 23:12 | 46.77056 | 7.26675 | 36045 ft | 494 kts | 51° |
| 2026-05-03 23:13 | 46.81302 | 7.34417 | 36071 ft | 485 kts | 51° |
| 2026-05-03 23:13 | 46.85002 | 7.41190 | 36073 ft | 484 kts | 51° |
| 2026-05-03 23:14 | 46.89173 | 7.48893 | 36076 ft | 484 kts | 51° |
| 2026-05-03 23:14 | 46.93355 | 7.56625 | 36073 ft | 484 kts | 51° |
| 2026-05-03 23:15 | 46.97518 | 7.64322 | 36074 ft | 484 kts | 51° |
| 2026-05-03 23:15 | 47.01700 | 7.72072 | 36072 ft | 483 kts | 51° |
| 2026-05-03 23:16 | 47.05879 | 7.79836 | 36069 ft | 484 kts | 51° |
| 2026-05-03 23:16 | 47.10013 | 7.87542 | 36069 ft | 483 kts | 51° |
| 2026-05-03 23:17 | 47.14141 | 7.95388 | 36289 ft | 484 kts | 54° |
| 2026-05-03 23:17 | 47.16029 | 7.99487 | 36619 ft | 483 kts | 57° |
| 2026-05-03 23:17 | 47.17803 | 8.03622 | 36919 ft | 482 kts | 58° |
| 2026-05-03 23:17 | 47.19534 | 8.07774 | 37036 ft | 483 kts | 58° |
| 2026-05-03 23:18 | 47.21287 | 8.12003 | 37066 ft | 482 kts | 58° |
| 2026-05-03 23:18 | 47.24779 | 8.20373 | 37077 ft | 482 kts | 58° |
| 2026-05-03 23:19 | 47.28394 | 8.28710 | 37071 ft | 481 kts | 53° |
| 2026-05-03 23:19 | 47.33114 | 8.35532 | 37074 ft | 478 kts | 32° |
| 2026-05-03 23:20 | 47.39020 | 8.40002 | 37075 ft | 477 kts | 21° |
| 2026-05-03 23:20 | 47.45127 | 8.43886 | 37075 ft | 477 kts | 22° |
| 2026-05-03 23:21 | 47.51136 | 8.47962 | 37077 ft | 477 kts | 24° |
| 2026-05-03 23:21 | 47.57143 | 8.52227 | 37070 ft | 478 kts | 24° |
| 2026-05-03 23:22 | 47.66096 | 8.58666 | 37073 ft | 478 kts | 25° |
| 2026-05-03 23:22 | 47.72106 | 8.62994 | 37068 ft | 478 kts | 24° |
| 2026-05-03 23:23 | 47.78074 | 8.67299 | 37066 ft | 478 kts | 25° |
| 2026-05-03 23:23 | 47.84036 | 8.71610 | 37065 ft | 478 kts | 25° |
| 2026-05-03 23:24 | 47.90028 | 8.75954 | 37060 ft | 478 kts | 25° |
| 2026-05-03 23:24 | 47.96018 | 8.80307 | 37061 ft | 478 kts | 25° |
| 2026-05-03 23:25 | 48.01973 | 8.84647 | 37058 ft | 478 kts | 25° |
| 2026-05-03 23:25 | 48.07967 | 8.89027 | 37061 ft | 478 kts | 25° |
| 2026-05-03 23:26 | 48.13947 | 8.93428 | 37054 ft | 478 kts | 24° |
| 2026-05-03 23:26 | 48.20231 | 8.96328 | 36767 ft | 475 kts | 6° |
| 2026-05-03 23:27 | 48.23524 | 8.96872 | 36374 ft | 475 kts | 2° |
| 2026-05-03 23:27 | 48.26829 | 8.97217 | 35817 ft | 476 kts | 1° |
| 2026-05-03 23:27 | 48.29933 | 8.97520 | 35300 ft | 476 kts | 2° |
| 2026-05-03 23:27 | 48.33209 | 8.97884 | 34744 ft | 478 kts | 2° |
| 2026-05-03 23:28 | 48.35452 | 8.98166 | 34378 ft | 479 kts | 2° |
| 2026-05-03 23:28 | 48.38779 | 8.98625 | 33799 ft | 480 kts | 3° |
| 2026-05-03 23:28 | 48.43179 | 8.99278 | 33024 ft | 482 kts | 3° |
| 2026-05-03 23:28 | 48.45398 | 8.99617 | 32642 ft | 484 kts | 4° |
| 2026-05-03 23:29 | 48.48759 | 9.00137 | 32055 ft | 486 kts | 4° |
| 2026-05-03 23:29 | 48.52122 | 9.00658 | 31450 ft | 487 kts | 4° |
| 2026-05-03 23:29 | 48.55509 | 9.01181 | 30842 ft | 489 kts | 4° |
| 2026-05-03 23:29 | 48.58912 | 9.01706 | 30218 ft | 490 kts | 4° |
| 2026-05-03 23:30 | 48.62248 | 9.02237 | 29522 ft | 487 kts | 5° |
| 2026-05-03 23:30 | 48.65596 | 9.02904 | 28838 ft | 484 kts | 6° |
| 2026-05-03 23:30 | 48.68915 | 9.03667 | 28160 ft | 480 kts | 7° |
| 2026-05-03 23:30 | 48.72200 | 9.04469 | 27523 ft | 476 kts | 7° |
| 2026-05-03 23:31 | 48.75466 | 9.05278 | 26929 ft | 477 kts | 7° |
| 2026-05-03 23:31 | 48.78743 | 9.06084 | 26263 ft | 475 kts | 7° |
| 2026-05-03 23:31 | 48.82000 | 9.06881 | 25618 ft | 471 kts | 7° |
| 2026-05-03 23:31 | 48.85192 | 9.07656 | 24990 ft | 467 kts | 7° |
| 2026-05-03 23:32 | 48.88388 | 9.08367 | 24365 ft | 462 kts | 5° |
| 2026-05-03 23:32 | 48.91577 | 9.08919 | 23714 ft | 457 kts | 3° |
| 2026-05-03 23:32 | 48.94726 | 9.09379 | 22978 ft | 452 kts | 2° |
| 2026-05-03 23:32 | 48.97858 | 9.09806 | 22336 ft | 447 kts | 2° |
| 2026-05-03 23:33 | 49.00942 | 9.10223 | 21950 ft | 444 kts | 2° |
| 2026-05-03 23:33 | 49.03979 | 9.10637 | 21224 ft | 444 kts | 2° |
| 2026-05-03 23:33 | 49.07037 | 9.11063 | 20437 ft | 436 kts | 3° |
| 2026-05-03 23:33 | 49.10042 | 9.11488 | 19746 ft | 431 kts | 3° |
| 2026-05-03 23:34 | 49.13014 | 9.11913 | 19086 ft | 426 kts | 3° |
| 2026-05-03 23:34 | 49.15961 | 9.12335 | 18452 ft | 421 kts | 3° |
| 2026-05-03 23:34 | 49.18835 | 9.12747 | 17777 ft | 417 kts | 3° |
| 2026-05-03 23:34 | 49.21721 | 9.13162 | 17233 ft | 412 kts | 3° |
| 2026-05-03 23:35 | 49.24588 | 9.13573 | 16843 ft | 412 kts | 3° |
| 2026-05-03 23:35 | 49.27436 | 9.14002 | 16457 ft | 410 kts | 5° |
| 2026-05-03 23:35 | 49.30229 | 9.14691 | 16013 ft | 410 kts | 9° |
| 2026-05-03 23:35 | 49.33041 | 9.15603 | 15157 ft | 409 kts | 11° |
| 2026-05-03 23:36 | 49.35805 | 9.16599 | 14361 ft | 407 kts | 12° |
| 2026-05-03 23:36 | 49.38549 | 9.17613 | 13630 ft | 402 kts | 12° |
| 2026-05-03 23:36 | 49.41217 | 9.18596 | 12964 ft | 395 kts | 12° |
| 2026-05-03 23:36 | 49.43893 | 9.19571 | 12352 ft | 393 kts | 11° |
| 2026-05-03 23:37 | 49.46548 | 9.20530 | 11777 ft | 391 kts | 11° |
| 2026-05-03 23:37 | 49.49202 | 9.21482 | 11298 ft | 388 kts | 11° |
| 2026-05-03 23:37 | 49.51802 | 9.22413 | 11025 ft | 388 kts | 11° |
| 2026-05-03 23:37 | 49.54438 | 9.23355 | 10945 ft | 388 kts | 11° |
| 2026-05-03 23:38 | 49.57066 | 9.24295 | 10753 ft | 382 kts | 11° |
| 2026-05-03 23:38 | 49.59590 | 9.25203 | 10641 ft | 362 kts | 11° |
| 2026-05-03 23:38 | 49.61974 | 9.26060 | 10510 ft | 346 kts | 11° |
| 2026-05-03 23:38 | 49.64262 | 9.26882 | 10374 ft | 328 kts | 10° |
| 2026-05-03 23:39 | 49.66426 | 9.27660 | 10250 ft | 315 kts | 10° |
| 2026-05-03 23:39 | 49.68547 | 9.28419 | 10122 ft | 312 kts | 10° |
| 2026-05-03 23:39 | 49.70662 | 9.29177 | 10035 ft | 310 kts | 10° |
| 2026-05-03 23:39 | 49.72773 | 9.29938 | 10024 ft | 311 kts | 10° |
| 2026-05-03 23:40 | 49.74867 | 9.30698 | 10024 ft | 311 kts | 10° |
| 2026-05-03 23:40 | 49.76978 | 9.31465 | 10002 ft | 310 kts | 10° |
| 2026-05-03 23:40 | 49.79067 | 9.32220 | 10030 ft | 312 kts | 10° |
| 2026-05-03 23:40 | 49.81191 | 9.32993 | 10012 ft | 311 kts | 10° |
| 2026-05-03 23:41 | 49.83299 | 9.33381 | 10000 ft | 305 kts | 350° |
| 2026-05-03 23:41 | 49.85277 | 9.32503 | 9988 ft | 290 kts | 324° |
| 2026-05-03 23:41 | 49.86867 | 9.30638 | 10005 ft | 285 kts | 311° |
| 2026-05-03 23:41 | 49.88296 | 9.28514 | 9994 ft | 284 kts | 309° |
| 2026-05-03 23:42 | 49.89709 | 9.26357 | 9983 ft | 285 kts | 309° |
| 2026-05-03 23:42 | 49.91124 | 9.24219 | 9608 ft | 286 kts | 310° |
| 2026-05-03 23:42 | 49.92559 | 9.22098 | 9177 ft | 283 kts | 310° |
| 2026-05-03 23:42 | 49.93989 | 9.20010 | 8771 ft | 281 kts | 310° |
| 2026-05-03 23:43 | 49.95416 | 9.17944 | 8360 ft | 278 kts | 311° |
| 2026-05-03 23:43 | 49.96812 | 9.15930 | 7994 ft | 276 kts | 311° |
| 2026-05-03 23:43 | 49.98221 | 9.13905 | 7614 ft | 274 kts | 311° |
| 2026-05-03 23:43 | 49.99624 | 9.11891 | 7240 ft | 272 kts | 311° |
| 2026-05-03 23:44 | 50.01010 | 9.09902 | 6875 ft | 271 kts | 311° |
| 2026-05-03 23:44 | 50.02394 | 9.07917 | 6501 ft | 269 kts | 311° |
| 2026-05-03 23:44 | 50.03751 | 9.05971 | 6134 ft | 267 kts | 312° |
| 2026-05-03 23:44 | 50.05112 | 9.04018 | 5782 ft | 264 kts | 312° |
| 2026-05-03 23:45 | 50.06460 | 9.02083 | 5508 ft | 262 kts | 312° |
| 2026-05-03 23:45 | 50.07797 | 9.00163 | 5261 ft | 261 kts | 313° |
| 2026-05-03 23:45 | 50.09117 | 8.98267 | 5004 ft | 254 kts | 313° |
| 2026-05-03 23:45 | 50.10361 | 8.96473 | 4780 ft | 237 kts | 311° |
| 2026-05-03 23:46 | 50.11328 | 8.94502 | 4583 ft | 224 kts | 291° |
| 2026-05-03 23:46 | 50.11626 | 8.92264 | 4364 ft | 202 kts | 263° |
| 2026-05-03 23:46 | 50.11323 | 8.90213 | 4193 ft | 188 kts | 253° |
| 2026-05-03 23:46 | 50.10970 | 8.88307 | 4033 ft | 184 kts | 253° |
| 2026-05-03 23:47 | 50.10594 | 8.86416 | 4008 ft | 183 kts | 252° |
| 2026-05-03 23:47 | 50.10163 | 8.84527 | 3823 ft | 184 kts | 249° |
| 2026-05-03 23:47 | 50.09711 | 8.82664 | 3576 ft | 183 kts | 250° |
| 2026-05-03 23:47 | 50.09267 | 8.80811 | 3343 ft | 183 kts | 250° |
| 2026-05-03 23:48 | 50.08830 | 8.78981 | 3110 ft | 182 kts | 250° |
| 2026-05-03 23:48 | 50.08388 | 8.77125 | 2874 ft | 183 kts | 250° |
| 2026-05-03 23:48 | 50.07950 | 8.75278 | 2622 ft | 182 kts | 250° |
| 2026-05-03 23:48 | 50.07512 | 8.73433 | 2394 ft | 182 kts | 249° |
| 2026-05-03 23:49 | 50.07073 | 8.71583 | 2152 ft | 182 kts | 249° |
| 2026-05-03 23:49 | 50.06637 | 8.69747 | 1925 ft | 175 kts | 249° |
| 2026-05-03 23:49 | 50.06240 | 8.68071 | 1622 ft | 156 kts | 249° |
| 2026-05-03 23:49 | 50.05868 | 8.66506 | 1469 ft | 154 kts | 249° |
| 2026-05-03 23:50 | 50.05498 | 8.64932 | 1279 ft | 155 kts | 248° |
| 2026-05-03 23:50 | 50.05248 | 8.63885 | 1152 ft | 156 kts | 249° |
| 2026-05-03 23:50 | 50.04738 | 8.61762 | 878 ft | 157 kts | 249° |
| 2026-05-03 23:50 | 50.04370 | 8.60157 | 656 ft | 157 kts | 249° |
| 2026-05-03 23:51 | 50.03990 | 8.58588 | 404 ft | 157 kts | 249° |
| 2026-05-03 23:51 | 50.03649 | 8.57160 | 366 ft | 115 kts | 249° |
| 2026-05-03 23:51 | 50.03440 | 8.56284 | 363 ft | 57 kts | 249° |
| 2026-05-03 23:51 | 50.03331 | 8.55818 | 361 ft | 42 kts | 252° |
| 2026-05-03 23:52 | 50.03316 | 8.55480 | 357 ft | 28 kts | 278° |
| 2026-05-03 23:52 | 50.03347 | 8.55199 | 357 ft | 24 kts | 279° |
| 2026-05-03 23:52 | 50.03395 | 8.54964 | 358 ft | 21 kts | 292° |
| 2026-05-03 23:52 | 50.03493 | 8.54824 | 360 ft | 18 kts | 336° |
| 2026-05-03 23:53 | 50.03599 | 8.54764 | 359 ft | 14 kts | 340° |
| 2026-05-03 23:53 | 50.03692 | 8.54710 | 355 ft | 16 kts | 338° |
| 2026-05-03 23:53 | 50.03727 | 8.54605 | 356 ft | 12 kts | 258° |
| 2026-05-03 23:53 | 50.03700 | 8.54445 | 350 ft | 13 kts | 277° |
| 2026-05-03 23:54 | 50.03766 | 8.54357 | 361 ft | 15 kts | 336° |
| 2026-05-03 23:54 | 50.03866 | 8.54298 | 355 ft | 15 kts | 340° |
| 2026-05-03 23:54 | 50.03951 | 8.54236 | 360 ft | 9 kts | 312° |
| 2026-05-03 23:54 | 50.03954 | 8.54177 | 358 ft | 5 kts | 260° |
| 2026-05-03 23:55 | 50.03943 | 8.54122 | 352 ft | 2 kts | 251° |
| 2026-05-03 23:55 | 50.03939 | 8.54102 | 356 ft | 0 kts | 250° |